Portada
METAR-TAF:

METAR-TAF

Aeropuertos :

Tiree, Escocia

latitud: 56-30N, longitud: 006-53W, altitud: 12 m

Observación

El informe se hizo hace 13 minutos, a las 09:20 UTC
Viento 13 kt del norte
Temperatura 11°C
Humedad 94%
Presión 1019 hPa
Visibilidad 10 km o más
Cielo nuboso a una altura de 600 ft

METAR: EGPU 180920Z 01013KT 9999 BKN006 11/10 Q1019

Hora: 10:33 (09:33 UTC)

Pronóstico

El informe se hizo hace 1 hora y 35 minutos, a las 07:58 UTC
Pronóstico válido del 18 a las 09 UTC al 18 a las 18 UTC
Viento 12 kt del norte
Visibilidad 10 km o más
Cielo nuboso a una altura de 1200 ft
Temporalmente
del 18 a las 09 UTC al 18 a las 12 UTC
Visibilidad: 8000 m
Cielo nuboso a una altura de 600 ft
Evolucionando progresivamente
del 18 a las 12 UTC al 18 a las 15 UTC
Nubes dispersas a una altura de 1500 ft

TAF: EGPU 180758Z 1809/1818 35012KT 9999 BKN012 TEMPO 1809/1812 8000 BKN006 BECMG 1812/1815 SCT015

Observaciones y pronósticos meteorológicos de más de 4000 aeropuertos (mensajes METAR y TAF).

Los puntos amarillos y rojos representan las estaciones disponibles.

Ponga el ratón en el punto deseado para ver el nombre de la estación.

Haga clic para ver las observaciones y los pronósticos meteorológicos.

Para cambiar el mapa : haga clic en los botones verdes con una cruz de color negro para hacer un zoom, en el botón verde con un guión para alejar o en las flechas verdes para mapas adyacentes.


METAR-TAF: